| time (UTC) | temp C | wind direction | speed KPH | gust KPH | rain 1hr cm | rain 24hr cm | rain mn cm | humidity % | barometer mb |
| 20260906140135 | 21 | 167 | 3.2 | 4.8 | 0.00 | 0.00 | 0.00 | 82 | |
| 20260906135632 | 21 | 64 | 8.0 | 11.3 | 0.00 | 0.00 | 0.00 | 81 | |
| 20260906135128 | 21 | 69 | 4.8 | 6.4 | 0.00 | 0.00 | 0.00 | 83 | |
| 20260906134623 | 21 | 59 | 3.2 | 4.8 | 0.00 | 0.00 | 0.00 | 85 | |
| 20260906134118 | 21 | 129 | 3.2 | 4.8 | 0.00 | 0.00 | 0.00 | 85 | |
| 20260906133614 | 21 | 113 | 1.6 | 3.2 | 0.00 | 0.00 | 0.00 | 85 | |
| 20260906133108 | 21 | 189 | 1.6 | 4.8 | 0.00 | 0.00 | 0.00 | 86 | |
| 20260906132603 | 21 | 22 | 3.2 | 6.4 | 0.00 | 0.00 | 0.00 | 86 | |
| 20260906132059 | 20 | 72 | 1.6 | 4.8 | 0.00 | 0.00 | 0.00 | 88 | |
| 20260906131554 | 21 | 159 | 0.0 | 4.8 | 0.00 | 0.00 | 0.00 | 89 | |
| 20260906131050 | 20 | 88 | 1.6 | 1.6 | 0.00 | 0.00 | 0.00 | 91 | |
| 20260906130549 | 20 | 57 | 1.6 | 3.2 | 0.00 | 0.00 | 0.00 | 93 | |
| 20260906130045 | 20 | 11 | 1.6 | 1.6 | 0.00 | 0.00 | 0.00 | 94 | |
| 20260906125543 | 19 | 49 | 0.0 | 4.8 | 0.00 | 0.00 | 0.00 | 94 | |
| 20260906125042 | 19 | 18 | 1.6 | 3.2 | 0.00 | 0.00 | 0.00 | 95 | |
| 20260906124538 | 18 | 32 | 0.0 | 1.6 | 0.00 | 0.00 | 0.00 | 96 | |
| 20260906124032 | 18 | 80 | 0.0 | 0.0 | 0.00 | 0.00 | 0.00 | 97 | |
| 20260906123532 | 17 | 26 | 0.0 | 0.0 | 0.00 | 0.00 | 0.00 | 98 | |
| 20260906123027 | 17 | 46 | 0.0 | 1.6 | 0.00 | 0.00 | 0.00 | 98 | |
| 20260906122526 | 17 | 18 | 0.0 | 0.0 | 0.00 | 0.00 | 0.00 | 98 | |
| 20260906122023 | 17 | 68 | 0.0 | 0.0 | 0.00 | 0.00 | 0.00 | 98 | |
| 20260906121519 | 17 | 15 | 0.0 | 0.0 | 0.00 | 0.00 | 0.00 | 97 | |
| 20260906121015 | 17 | 33 | 0.0 | 0.0 | 0.00 | 0.00 | 0.00 | 98 | |
| 20260906120515 | 17 | 26 | 0.0 | 0.0 | 0.00 | 0.00 | 0.00 | 97 | |
| 20260906120014 | 17 | 38 | 0.0 | 0.0 | 0.00 | 0.00 | 0.00 | 98 | |
| 20260906115508 | 17 | 59 | 0.0 | 1.6 | 0.00 | 0.00 | 0.00 | 97 | |
| 20260906115008 | 16 | 72 | 0.0 | 0.0 | 0.00 | 0.00 | 0.00 | 97 | |
| 20260906114502 | 16 | 11 | 0.0 | 0.0 | 0.00 | 0.00 | 0.00 | 97 | |
| 20260906113958 | 16 | 27 | 0.0 | 0.0 | 0.00 | 0.00 | 0.00 | 97 | |
| 20260906113456 | 16 | 68 | 0.0 | 0.0 | 0.00 | 0.00 | 0.00 | 97 | |
| 20260906112952 | 16 | 68 | 0.0 | 1.6 | 0.00 | 0.00 | 0.00 | 97 | |
| 20260906112447 | 16 | 0 | 0.0 | 0.0 | 0.00 | 0.00 | 0.00 | 97 | |
| 20260906111943 | 17 | 0 | 0.0 | 0.0 | 0.00 | 0.00 | 0.00 | 97 | |
| 20260906111442 | 17 | 12 | 0.0 | 1.6 | 0.00 | 0.00 | 0.00 | 97 | |
| 20260906110937 | 17 | 22 | 0.0 | 3.2 | 0.00 | 0.00 | 0.00 | 97 | |
| 20260906110433 | 17 | 357 | 0.0 | 0.0 | 0.00 | 0.00 | 0.00 | 97 | |
| 20260906105931 | 17 | 5 | 0.0 | 0.0 | 0.00 | 0.00 | 0.00 | 97 | |
| 20260906105427 | 17 | 5 | 1.6 | 3.2 | 0.00 | 0.00 | 0.00 | 97 | |
| 20260906104923 | 17 | 0 | 0.0 | 1.6 | 0.00 | 0.00 | 0.00 | 97 | |
| 20260906104422 | 17 | 347 | 1.6 | 3.2 | 0.00 | 0.00 | 0.00 | 97 | |
| 20260906103921 | 17 | 16 | 0.0 | 0.0 | 0.00 | 0.00 | 0.00 | 97 | |
| 20260906103419 | 17 | 103 | 0.0 | 0.0 | 0.00 | 0.00 | 0.00 | 97 | |
| 20260906102915 | 17 | 85 | 0.0 | 0.0 | 0.00 | 0.00 | 0.00 | 96 | |
| 20260906102415 | 17 | 85 | 0.0 | 0.0 | 0.00 | 0.00 | 0.00 | 96 | |
| 20260906101909 | 17 | 58 | 0.0 | 0.0 | 0.00 | 0.00 | 0.00 | 96 | |
| 20260906101405 | 17 | 58 | 0.0 | 0.0 | 0.00 | 0.00 | 0.00 | 96 | |
| 20260906100900 | 17 | 23 | 0.0 | 0.0 | 0.00 | 0.00 | 0.00 | 96 | |
| 20260906100359 | 17 | 20 | 0.0 | 3.2 | 0.00 | 0.00 | 0.00 | 96 | |
| 20260906095854 | 17 | 9 | 0.0 | 0.0 | 0.00 | 0.00 | 0.00 | 96 | |
| 20260906095350 | 17 | 37 | 3.2 | 3.2 | 0.00 | 0.00 | 0.00 | 96 | |
| 20260906094849 | 17 | 37 | 3.2 | 3.2 | 0.00 | 0.00 | 0.00 | 96 | |
| 20260906094344 | 17 | 5 | 0.0 | 4.8 | 0.00 | 0.00 | 0.00 | 96 | |
| 20260906093841 | 17 | 356 | 3.2 | 4.8 | 0.00 | 0.00 | 0.00 | 96 | |
| 20260906093337 | 17 | 354 | 1.6 | 3.2 | 0.00 | 0.00 | 0.00 | 95 | |
| 20260906092831 | 17 | 19 | 0.0 | 1.6 | 0.00 | 0.00 | 0.00 | 95 | |
| 20260906092331 | 17 | 350 | 1.6 | 4.8 | 0.00 | 0.00 | 0.00 | 96 | |
| 20260906091827 | 17 | 330 | 3.2 | 4.8 | 0.00 | 0.00 | 0.00 | 95 | |
| 20260906091323 | 17 | 16 | 1.6 | 3.2 | 0.00 | 0.00 | 0.00 | 95 | |
| 20260906090819 | 17 | 356 | 3.2 | 3.2 | 0.00 | 0.00 | 0.00 | 95 | |
| 20260906090318 | 17 | 5 | 1.6 | 3.2 | 0.00 | 0.00 | 0.00 | 95 | |
| 20260906085818 | 17 | 9 | 0.0 | 3.2 | 0.00 | 0.00 | 0.00 | 94 | |
| 20260906085317 | 17 | 35 | 0.0 | 3.2 | 0.00 | 0.00 | 0.00 | 94 | |
| 20260906084812 | 17 | 9 | 3.2 | 4.8 | 0.00 | 0.00 | 0.00 | 94 | |
| 20260906084312 | 17 | 9 | 3.2 | 4.8 | 0.00 | 0.00 | 0.00 | 94 | |
| 20260906083807 | 17 | 9 | 3.2 | 4.8 | 0.00 | 0.00 | 0.00 | 94 | |
| 20260906083303 | 17 | 357 | 1.6 | 3.2 | 0.00 | 0.00 | 0.00 | 94 | |
| 20260906082757 | 17 | 357 | 1.6 | 3.2 | 0.00 | 0.00 | 0.00 | 94 | |
| 20260906082252 | 17 | 0 | 3.2 | 4.8 | 0.00 | 0.00 | 0.00 | 94 | |
| 20260906081748 | 17 | 5 | 3.2 | 4.8 | 0.00 | 0.00 | 0.00 | 94 | |
| 20260906081243 | 17 | 7 | 1.6 | 3.2 | 0.00 | 0.00 | 0.00 | 94 | |
| 20260906080739 | 17 | 4 | 1.6 | 3.2 | 0.00 | 0.00 | 0.00 | 94 | |
| 20260906080236 | 17 | 20 | 3.2 | 3.2 | 0.00 | 0.00 | 0.00 | 94 | |
| 20260906075735 | 18 | 358 | 1.6 | 1.6 | 0.00 | 0.00 | 0.00 | 94 | |
| 20260906075235 | 18 | 9 | 1.6 | 3.2 | 0.00 | 0.00 | 0.00 | 94 | |
| 20260906074731 | 18 | 9 | 1.6 | 3.2 | 0.00 | 0.00 | 0.00 | 94 | |
| 20260906074230 | 18 | 27 | 1.6 | 3.2 | 0.00 | 0.00 | 0.00 | 95 | |
| 20260906073730 | 17 | 7 | 3.2 | 3.2 | 0.00 | 0.00 | 0.00 | 95 | |
| 20260906073225 | 17 | 28 | 3.2 | 3.2 | 0.00 | 0.00 | 0.00 | 95 | |
| 20260906072721 | 17 | 353 | 3.2 | 3.2 | 0.00 | 0.00 | 0.00 | 95 | |
| 20260906072216 | 17 | 354 | 1.6 | 3.2 | 0.00 | 0.00 | 0.00 | 95 | |
| 20260906071712 | 17 | 355 | 3.2 | 3.2 | 0.00 | 0.00 | 0.00 | 96 | |
| 20260906071212 | 17 | 350 | 3.2 | 3.2 | 0.00 | 0.00 | 0.00 | 96 | |
| 20260906070709 | 17 | 353 | 1.6 | 3.2 | 0.00 | 0.00 | 0.00 | 96 | |
| 20260906070204 | 17 | 349 | 1.6 | 3.2 | 0.00 | 0.00 | 0.00 | 96 | |
| 20260906065703 | 17 | 336 | 0.0 | 1.6 | 0.00 | 0.00 | 0.00 | 96 | |
| 20260906065159 | 17 | 3 | 3.2 | 3.2 | 0.00 | 0.00 | 0.00 | 96 | |
| 20260906064654 | 17 | 344 | 1.6 | 3.2 | 0.00 | 0.00 | 0.00 | 96 | |
| 20260906064149 | 17 | 346 | 3.2 | 3.2 | 0.00 | 0.00 | 0.00 | 96 | |
| 20260906063644 | 16 | 344 | 1.6 | 3.2 | 0.00 | 0.00 | 0.00 | 96 | |
| 20260906063140 | 16 | 341 | 1.6 | 3.2 | 0.00 | 0.00 | 0.00 | 96 | |
| 20260906062636 | 16 | 336 | 1.6 | 1.6 | 0.00 | 0.00 | 0.00 | 96 | |
| 20260906062134 | 16 | 336 | 1.6 | 3.2 | 0.00 | 0.00 | 0.00 | 96 | |
| 20260906061631 | 16 | 344 | 1.6 | 3.2 | 0.00 | 0.00 | 0.00 | 95 | |
| 20260906061131 | 17 | 343 | 1.6 | 3.2 | 0.00 | 0.00 | 0.00 | 95 | |
| 20260906060628 | 17 | 349 | 0.0 | 1.6 | 0.00 | 0.00 | 0.00 | 95 | |
| 20260906060125 | 17 | 343 | 3.2 | 3.2 | 0.00 | 0.00 | 0.00 | 95 | |
| 20260906055620 | 17 | 347 | 3.2 | 3.2 | 0.00 | 0.00 | 0.00 | 94 | |
| 20260906055115 | 17 | 358 | 3.2 | 4.8 | 0.00 | 0.00 | 0.00 | 94 | |
| 20260906054610 | 17 | 6 | 1.6 | 3.2 | 0.00 | 0.00 | 0.00 | 94 | |
| 20260906054105 | 17 | 359 | 8.0 | 9.7 | 0.00 | 0.00 | 0.00 | 95 | |
| 20260906053602 | 17 | 353 | 3.2 | 9.7 | 0.00 | 0.00 | 0.00 | 95 | |
| 20260906053057 | 17 | 359 | 3.2 | 4.8 | 0.00 | 0.00 | 0.00 | 95 | |
| 20260906052552 | 17 | 37 | 3.2 | 6.4 | 0.00 | 0.00 | 0.00 | 95 | |
| 20260906052049 | 17 | 5 | 3.2 | 4.8 | 0.00 | 0.00 | 0.00 | 95 | |
| 20260906051544 | 17 | 1 | 0.0 | 1.6 | 0.00 | 0.00 | 0.00 | 95 | |
| 20260906051040 | 17 | 14 | 1.6 | 3.2 | 0.00 | 0.00 | 0.00 | 94 | |
| 20260906050535 | 17 | 355 | 3.2 | 6.4 | 0.00 | 0.00 | 0.00 | 95 | |
| 20260906050030 | 17 | 346 | 4.8 | 4.8 | 0.00 | 0.00 | 0.00 | 95 | |
| 20260906045528 | 17 | 0 | 6.4 | 9.7 | 0.00 | 0.00 | 0.00 | 95 | |
| 20260906045024 | 17 | 343 | 0.0 | 3.2 | 0.00 | 0.00 | 0.00 | 95 | |
| 20260906044520 | 17 | 347 | 1.6 | 1.6 | 0.00 | 0.00 | 0.00 | 95 | |
| 20260906044015 | 17 | 2 | 0.0 | 4.8 | 0.00 | 0.00 | 0.00 | 95 | |
| 20260906043510 | 17 | 43 | 0.0 | 1.6 | 0.00 | 0.00 | 0.00 | 94 | |
| 20260906043007 | 17 | 28 | 0.0 | 1.6 | 0.00 | 0.00 | 0.00 | 94 | |
| 20260906042505 | 17 | 3 | 3.2 | 3.2 | 0.00 | 0.00 | 0.00 | 94 | |
| 20260906042005 | 17 | 5 | 3.2 | 6.4 | 0.00 | 0.00 | 0.00 | 94 | |
| 20260906041502 | 17 | 337 | 3.2 | 3.2 | 0.00 | 0.00 | 0.00 | 94 | |
| 20260906041001 | 17 | 350 | 4.8 | 4.8 | 0.00 | 0.00 | 0.00 | 94 | |
| 20260906040456 | 17 | 1 | 0.0 | 3.2 | 0.00 | 0.00 | 0.00 | 94 | |
| 20260906035951 | 17 | 348 | 3.2 | 3.2 | 0.00 | 0.00 | 0.00 | 94 | |
| 20260906035447 | 17 | 70 | 0.0 | 0.0 | 0.00 | 0.00 | 0.00 | 93 | |
| 20260906034943 | 17 | 83 | 0.0 | 0.0 | 0.00 | 0.00 | 0.00 | 93 | |
| 20260906034443 | 17 | 84 | 0.0 | 0.0 | 0.00 | 0.00 | 0.00 | 93 | |
| 20260906033938 | 17 | 95 | 0.0 | 0.0 | 0.00 | 0.00 | 0.00 | 93 | |
| 20260906033438 | 17 | 350 | 1.6 | 1.6 | 0.00 | 0.00 | 0.00 | 93 | |
| 20260906032934 | 17 | 56 | 0.0 | 1.6 | 0.00 | 0.00 | 0.00 | 92 | |
| 20260906032431 | 17 | 5 | 0.0 | 3.2 | 0.00 | 0.00 | 0.00 | 92 | |
| 20260906031930 | 18 | 42 | 0.0 | 3.2 | 0.00 | 0.00 | 0.00 | 92 | |
| 20260906031426 | 18 | 309 | 1.6 | 4.8 | 0.00 | 0.00 | 0.00 | 92 | |
| 20260906030921 | 18 | 2 | 1.6 | 4.8 | 0.00 | 0.00 | 0.00 | 93 | |
| 20260906030416 | 18 | 331 | 0.0 | 3.2 | 0.00 | 0.00 | 0.00 | 93 | |
| 20260906025911 | 18 | 107 | 0.0 | 1.6 | 0.00 | 0.00 | 0.00 | 94 | |
| 20260906025410 | 18 | 313 | 0.0 | 3.2 | 0.00 | 0.00 | 0.00 | 94 | |
| 20260906024909 | 18 | 32 | 0.0 | 1.6 | 0.00 | 0.00 | 0.00 | 94 | |
| 20260906024408 | 18 | 89 | 0.0 | 4.8 | 0.00 | 0.00 | 0.00 | 95 | |
| 20260906023904 | 18 | 24 | 6.4 | 9.7 | 0.00 | 0.00 | 0.00 | 96 | |
| 20260906023400 | 18 | 53 | 0.0 | 0.0 | 0.00 | 0.00 | 0.00 | 96 | |
| 20260906022900 | 18 | 119 | 0.0 | 0.0 | 0.00 | 0.00 | 0.00 | 95 | |
| 20260906022355 | 18 | 0 | 0.0 | 0.0 | 0.00 | 0.00 | 0.00 | 95 | |
| 20260906021851 | 18 | 96 | 0.0 | 0.0 | 0.00 | 0.00 | 0.00 | 95 | |
| 20260906021350 | 18 | 96 | 0.0 | 0.0 | 0.00 | 0.00 | 0.00 | 94 | |
| 20260906020845 | 18 | 96 | 0.0 | 0.0 | 0.00 | 0.00 | 0.00 | 94 | |
| 20260906020344 | 18 | 96 | 0.0 | 0.0 | 0.00 | 0.00 | 0.00 | 94 | |
| 20260906015839 | 18 | 96 | 0.0 | 0.0 | 0.00 | 0.00 | 0.00 | 94 | |
| 20260906015339 | 18 | 97 | 0.0 | 0.0 | 0.00 | 0.00 | 0.00 | 94 | |
| 20260906014838 | 18 | 97 | 0.0 | 0.0 | 0.00 | 0.00 | 0.00 | 94 | |
| 20260906014333 | 18 | 101 | 0.0 | 0.0 | 0.00 | 0.00 | 0.00 | 94 | |
| 20260906013829 | 19 | 110 | 0.0 | 0.0 | 0.00 | 0.00 | 0.00 | 93 | |
| 20260906013325 | 19 | 110 | 0.0 | 0.0 | 0.00 | 0.00 | 0.00 | 93 | |
| 20260906012820 | 20 | 111 | 0.0 | 0.0 | 0.00 | 0.00 | 0.00 | 92 | |
| 20260906012320 | 20 | 110 | 0.0 | 0.0 | 0.00 | 0.00 | 0.00 | 91 | |
| 20260906011815 | 20 | 110 | 0.0 | 0.0 | 0.00 | 0.00 | 0.00 | 91 | |
| 20260906011315 | 20 | 69 | 0.0 | 0.0 | 0.00 | 0.00 | 0.00 | 91 | |
| 20260906010811 | 20 | 336 | 1.6 | 1.6 | 0.00 | 0.00 | 0.00 | 90 | |
| 20260906010307 | 20 | 56 | 0.0 | 1.6 | 0.00 | 0.00 | 0.00 | 90 | |
| 20260906005802 | 20 | 290 | 1.6 | 3.2 | 0.00 | 0.00 | 0.00 | 90 | |
| 20260906005301 | 20 | 93 | 1.6 | 3.2 | 0.00 | 0.00 | 0.00 | 90 | |
| 20260906004800 | 20 | 28 | 1.6 | 3.2 | 0.00 | 0.00 | 0.00 | 90 | |
| 20260906004255 | 20 | 354 | 3.2 | 4.8 | 0.00 | 0.00 | 0.00 | 90 | |
| 20260906003755 | 20 | 356 | 0.0 | 3.2 | 0.00 | 0.00 | 0.00 | 90 | |
| 20260906003251 | 20 | 3 | 3.2 | 4.8 | 0.00 | 0.00 | 0.00 | 90 | |
| 20260906002746 | 20 | 14 | 0.0 | 3.2 | 0.00 | 0.00 | 0.00 | 90 | |
| 20260906002246 | 20 | 332 | 0.0 | 3.2 | 0.00 | 0.00 | 0.00 | 90 | |
| 20260906001742 | 20 | 57 | 0.0 | 3.2 | 0.00 | 0.00 | 0.00 | 90 | |
| 20260906001237 | 20 | 38 | 0.0 | 6.4 | 0.00 | 0.00 | 0.00 | 90 | |
| 20260906000732 | 20 | 24 | 3.2 | 4.8 | 0.00 | 0.00 | 0.00 | 90 | |
| 20260906000234 | 20 | 45 | 9.7 | 12.9 | 0.00 | 0.00 | 0.00 | 89 | |
| 20260905235727 | 21 | 333 | 1.6 | 4.8 | 0.00 | 0.00 | 0.00 | 90 | |
| 20260905235221 | 21 | 19 | 1.6 | 6.4 | 0.00 | 0.00 | 0.00 | 90 | |
| 20260905234717 | 21 | 351 | 3.2 | 9.7 | 0.00 | 0.00 | 0.00 | 90 | |
| 20260905234212 | 21 | 12 | 1.6 | 3.2 | 0.00 | 0.00 | 0.00 | 90 | |
| 20260905233707 | 21 | 21 | 1.6 | 4.8 | 0.00 | 0.00 | 0.00 | 91 | |
| 20260905233207 | 21 | 32 | 3.2 | 4.8 | 0.00 | 0.00 | 0.00 | 90 | |
| 20260905232702 | 21 | 352 | 1.6 | 3.2 | 0.00 | 0.00 | 0.00 | 90 | |
| 20260905232157 | 21 | 346 | 4.8 | 6.4 | 0.00 | 0.00 | 0.00 | 89 | |
| 20260905231653 | 21 | 46 | 0.0 | 3.2 | 0.00 | 0.00 | 0.00 | 89 | |
| 20260905231149 | 21 | 73 | 1.6 | 4.8 | 0.00 | 0.00 | 0.00 | 89 | |
| 20260905230644 | 21 | 332 | 0.0 | 3.2 | 0.00 | 0.00 | 0.00 | 89 | |
| 20260905230142 | 21 | 318 | 0.0 | 4.8 | 0.00 | 0.00 | 0.00 | 88 | |
| 20260905225642 | 22 | 3 | 0.0 | 4.8 | 0.00 | 0.00 | 0.00 | 88 | |
| 20260905225142 | 22 | 61 | 1.6 | 6.4 | 0.00 | 0.00 | 0.00 | 87 | |
| 20260905224642 | 22 | 50 | 3.2 | 4.8 | 0.00 | 0.00 | 0.00 | 87 | |
| 20260905224142 | 22 | 64 | 0.0 | 6.4 | 0.00 | 0.00 | 0.00 | 87 | |
| 20260905223639 | 22 | 11 | 6.4 | 9.7 | 0.00 | 0.00 | 0.00 | 85 | |
| 20260905223135 | 23 | 66 | 0.0 | 4.8 | 0.00 | 0.00 | 0.00 | 85 | |
| 20260905222631 | 23 | 298 | 0.0 | 3.2 | 0.00 | 0.00 | 0.00 | 87 | |
| 20260905222125 | 23 | 17 | 0.0 | 4.8 | 0.00 | 0.00 | 0.00 | 87 | |
| 20260905221621 | 22 | 10 | 1.6 | 4.8 | 0.00 | 0.00 | 0.00 | 89 | |
| 20260905221118 | 22 | 10 | 1.6 | 4.8 | 0.00 | 0.00 | 0.00 | 89 | |
| 20260905220613 | 22 | 48 | 3.2 | 4.8 | 0.00 | 0.00 | 0.00 | 89 | |
| 20260905220109 | 22 | 27 | 6.4 | 6.4 | 0.00 | 0.00 | 0.00 | 89 | |
| 20260905215608 | 22 | 348 | 4.8 | 6.4 | 0.00 | 0.00 | 0.00 | 89 | |
| 20260905215104 | 22 | 2 | 6.4 | 11.3 | 0.00 | 0.00 | 0.00 | 88 | |
| 20260905214601 | 22 | 27 | 1.6 | 4.8 | 0.00 | 0.00 | 0.00 | 89 | |
| 20260905214100 | 22 | 336 | 1.6 | 6.4 | 0.00 | 0.00 | 0.00 | 88 | |
| 20260905213601 | 22 | 33 | 6.4 | 9.7 | 0.00 | 0.00 | 0.00 | 89 | |
| 20260905213056 | 22 | 352 | 6.4 | 6.4 | 0.00 | 0.00 | 0.00 | 89 | |
| 20260905212556 | 22 | 341 | 4.8 | 4.8 | 0.00 | 0.00 | 0.00 | 89 | |
| 20260905212056 | 22 | 359 | 4.8 | 14.5 | 0.00 | 0.00 | 0.00 | 89 | |
| 20260905211551 | 22 | 3 | 6.4 | 20.9 | 0.00 | 0.00 | 0.00 | 89 | |
| 20260905211047 | 22 | 80 | 4.8 | 4.8 | 0.00 | 0.00 | 0.00 | 89 | |
| 20260905210543 | 22 | 21 | 6.4 | 12.9 | 0.00 | 0.00 | 0.00 | 89 | |
| 20260905210038 | 22 | 0 | 1.6 | 9.7 | 0.00 | 0.00 | 0.00 | 89 | |
| 20260905205537 | 22 | 11 | 6.4 | 9.7 | 0.00 | 0.00 | 0.00 | 90 | |
| 20260905205036 | 22 | 24 | 4.8 | 6.4 | 0.00 | 0.00 | 0.00 | 91 | |
| 20260905204531 | 22 | 332 | 6.4 | 9.7 | 0.00 | 0.00 | 0.00 | 90 | |
| 20260905204026 | 22 | 356 | 4.8 | 6.4 | 0.00 | 0.00 | 0.00 | 91 | |
| 20260905203526 | 22 | 18 | 6.4 | 11.3 | 0.00 | 0.00 | 0.00 | 90 | |
| 20260905203022 | 22 | 330 | 4.8 | 11.3 | 0.00 | 0.00 | 0.00 | 90 | |
| 20260905202517 | 22 | 7 | 3.2 | 9.7 | 0.00 | 0.00 | 0.00 | 89 | |
| 20260905202012 | 22 | 16 | 6.4 | 11.3 | 0.00 | 0.00 | 0.00 | 89 | |
| 20260905201508 | 22 | 52 | 8.0 | 12.9 | 0.00 | 0.00 | 0.00 | 88 | |
| 20260905201007 | 23 | 20 | 8.0 | 14.5 | 0.00 | 0.00 | 0.00 | 87 | |
| 20260905200503 | 23 | 8 | 11.3 | 12.9 | 0.00 | 0.00 | 0.00 | 87 | |
| 20260905200002 | 23 | 18 | 6.4 | 6.4 | 0.00 | 0.00 | 0.00 | 88 | |
| 20260905195456 | 23 | 0 | 9.7 | 12.9 | 0.00 | 0.00 | 0.00 | 86 | |
| 20260905194952 | 23 | 5 | 11.3 | 14.5 | 0.00 | 0.00 | 0.00 | 86 | |
| 20260905194451 | 23 | 6 | 6.4 | 14.5 | 0.00 | 0.00 | 0.00 | 88 | |
| 20260905193946 | 23 | 6 | 6.4 | 14.5 | 0.00 | 0.00 | 0.00 | 88 | |
| 20260905193446 | 23 | 12 | 6.4 | 16.1 | 0.00 | 0.00 | 0.00 | 88 | |
| 20260905192941 | 23 | 4 | 4.8 | 20.9 | 0.00 | 0.00 | 0.00 | 87 | |
| 20260905192437 | 23 | 339 | 8.0 | 14.5 | 0.00 | 0.00 | 0.00 | 87 | |
| 20260905191932 | 23 | 54 | 8.0 | 11.3 | 0.00 | 0.00 | 0.00 | 88 | |
| 20260905191432 | 23 | 14 | 6.4 | 11.3 | 0.00 | 0.00 | 0.00 | 88 | |
| 20260905190931 | 23 | 14 | 6.4 | 11.3 | 0.00 | 0.00 | 0.00 | 88 | |
| 20260905190429 | 23 | 16 | 4.8 | 9.7 | 0.00 | 0.00 | 0.00 | 88 | |
| 20260905185928 | 23 | 37 | 9.7 | 14.5 | 0.00 | 0.00 | 0.00 | 87 | |
| 20260905185423 | 23 | 23 | 6.4 | 16.1 | 0.00 | 0.00 | 0.00 | 89 | |
| 20260905184921 | 23 | 22 | 4.8 | 12.9 | 0.00 | 0.00 | 0.00 | 89 | |
| 20260905184417 | 23 | 5 | 12.9 | 16.1 | 0.00 | 0.00 | 0.00 | 88 | |
| 20260905183915 | 23 | 331 | 9.7 | 14.5 | 0.00 | 0.00 | 0.00 | 88 | |
| 20260905183410 | 23 | 6 | 9.7 | 12.9 | 0.00 | 0.00 | 0.00 | 88 | |
| 20260905182905 | 23 | 344 | 6.4 | 14.5 | 0.00 | 0.00 | 0.00 | 87 | |
| 20260905182404 | 23 | 354 | 8.0 | 12.9 | 0.00 | 0.00 | 0.00 | 88 | |
| 20260905181900 | 23 | 354 | 8.0 | 12.9 | 0.00 | 0.00 | 0.00 | 88 | |
| 20260905181400 | 23 | 358 | 6.4 | 11.3 | 0.00 | 0.00 | 0.00 | 88 | |
| 20260905180859 | 23 | 320 | 6.4 | 11.3 | 0.00 | 0.00 | 0.00 | 87 | |
| 20260905180355 | 23 | 322 | 8.0 | 11.3 | 0.00 | 0.00 | 0.00 | 87 | |
| 20260905175850 | 23 | 345 | 8.0 | 11.3 | 0.00 | 0.00 | 0.00 | 87 | |
| 20260905175349 | 23 | 350 | 6.4 | 6.4 | 0.00 | 0.00 | 0.00 | 88 | |
| 20260905174850 | 24 | 28 | 6.4 | 9.7 | 0.00 | 0.00 | 0.00 | 86 | |
| 20260905174346 | 24 | 5 | 3.2 | 6.4 | 0.00 | 0.00 | 0.00 | 86 | |
| 20260905173841 | 23 | 35 | 0.0 | 1.6 | 0.00 | 0.00 | 0.00 | 87 | |
| 20260905173337 | 23 | 44 | 3.2 | 4.8 | 0.00 | 0.00 | 0.00 | 86 | |
| 20260905172832 | 23 | 30 | 4.8 | 9.7 | 0.00 | 0.00 | 0.00 | 85 | |
| 20260905172330 | 23 | 354 | 1.6 | 4.8 | 0.00 | 0.00 | 0.00 | 87 | |
| 20260905171826 | 23 | 4 | 1.6 | 6.4 | 0.00 | 0.00 | 0.00 | 88 | |
| 20260905171323 | 23 | 1 | 9.7 | 11.3 | 0.00 | 0.00 | 0.00 | 88 | |
| 20260905170819 | 23 | 93 | 6.4 | 11.3 | 0.00 | 0.00 | 0.00 | 86 | |
| 20260905170314 | 24 | 17 | 8.0 | 11.3 | 0.00 | 0.00 | 0.00 | 85 | |
| 20260905165813 | 23 | 38 | 1.6 | 9.7 | 0.00 | 0.00 | 0.00 | 88 | |
| 20260905165310 | 23 | 359 | 6.4 | 9.7 | 0.00 | 0.00 | 0.00 | 86 | |
| 20260905164809 | 23 | 357 | 8.0 | 9.7 | 0.00 | 0.00 | 0.00 | 88 | |
| 20260905164309 | 23 | 357 | 6.4 | 9.7 | 0.00 | 0.00 | 0.00 | 87 | |
| 20260905163805 | 23 | 4 | 8.0 | 14.5 | 0.00 | 0.00 | 0.00 | 87 | |
| 20260905163301 | 23 | 0 | 1.6 | 9.7 | 0.00 | 0.00 | 0.00 | 89 | |
| 20260905162757 | 23 | 9 | 4.8 | 9.7 | 0.00 | 0.00 | 0.00 | 89 | |
| 20260905162256 | 23 | 51 | 0.0 | 12.9 | 0.00 | 0.00 | 0.00 | 90 | |
| 20260905161751 | 23 | 38 | 6.4 | 14.5 | 0.00 | 0.00 | 0.00 | 89 | |
| 20260905161250 | 23 | 347 | 4.8 | 12.9 | 0.00 | 0.00 | 0.00 | 90 | |
| 20260905160748 | 23 | 348 | 9.7 | 12.9 | 0.00 | 0.00 | 0.00 | 90 | |
| 20260905160243 | 23 | 348 | 4.8 | 9.7 | 0.00 | 0.00 | 0.00 | 91 | |
| 20260905155738 | 23 | 356 | 6.4 | 12.9 | 0.00 | 0.00 | 0.00 | 89 | |
| 20260905155237 | 23 | 9 | 3.2 | 9.7 | 0.00 | 0.00 | 0.00 | 91 | |
| 20260905154731 | 23 | 350 | 4.8 | 11.3 | 0.00 | 0.00 | 0.00 | 91 | |
| 20260905154227 | 23 | 6 | 6.4 | 14.5 | 0.00 | 0.00 | 0.00 | 91 | |
| 20260905153722 | 22 | 347 | 6.4 | 6.4 | 0.00 | 0.00 | 0.00 | 93 | |
| 20260905153218 | 22 | 9 | 8.0 | 11.3 | 0.00 | 0.00 | 0.00 | 93 | |
| 20260905152713 | 22 | 325 | 1.6 | 3.2 | 0.00 | 0.00 | 0.00 | 93 | |
| 20260905152207 | 22 | 355 | 4.8 | 9.7 | 0.00 | 0.00 | 0.00 | 93 | |
| 20260905151707 | 22 | 355 | 4.8 | 9.7 | 0.00 | 0.00 | 0.00 | 93 | |
| 20260905151203 | 22 | 340 | 4.8 | 9.7 | 0.00 | 0.00 | 0.00 | 93 | |
| 20260905150658 | 22 | 359 | 6.4 | 6.4 | 0.00 | 0.00 | 0.00 | 93 | |
| 20260905150156 | 22 | 335 | 6.4 | 9.7 | 0.00 | 0.00 | 0.00 | 94 | |
| 20260905145654 | 22 | 8 | 4.8 | 6.4 | 0.00 | 0.00 | 0.00 | 95 | |
| 20260905145149 | 22 | 334 | 6.4 | 11.3 | 0.00 | 0.00 | 0.00 | 95 | |
| 20260905144649 | 22 | 334 | 6.4 | 11.3 | 0.00 | 0.00 | 0.00 | 95 | |
| 20260905144148 | 21 | 2 | 6.4 | 6.4 | 0.00 | 0.00 | 0.00 | 96 | |
| 20260905143649 | 21 | 27 | 3.2 | 9.7 | 0.00 | 0.00 | 0.00 | 96 | |
| 20260905143148 | 21 | 24 | 4.8 | 6.4 | 0.00 | 0.00 | 0.00 | 97 | |
| 20260905142647 | 21 | 35 | 3.2 | 6.4 | 0.00 | 0.00 | 0.00 | 97 | |
| 20260905142147 | 21 | 53 | 4.8 | 11.3 | 0.00 | 0.00 | 0.00 | 97 | |
| 20260905141642 | 21 | 326 | 1.6 | 6.4 | 0.00 | 0.00 | 0.00 | 97 | |
| 20260905141138 | 21 | 326 | 1.6 | 6.4 | 0.00 | 0.00 | 0.00 | 97 | |
| 20260905140633 | 21 | 337 | 6.4 | 12.9 | 0.00 | 0.00 | 0.00 | 97 |